sensor_id;sensor_type;location;lat;lon;timestamp;pressure;altitude;pressure_sealevel;temperature;humidity
61113;BME280;47184;57.998;56.184;2022-07-29T00:01:00;100423.06;;;19.12;63.35
61113;BME280;47184;57.998;56.184;2022-07-29T00:03:26;100415.84;;;19.06;63.57
61113;BME280;47184;57.998;56.184;2022-07-29T00:05:52;100392.16;;;18.90;63.72
61113;BME280;47184;57.998;56.184;2022-07-29T00:08:19;100419.16;;;19.08;63.64
61113;BME280;47184;57.998;56.184;2022-07-29T00:10:46;100399.59;;;18.94;63.54
61113;BME280;47184;57.998;56.184;2022-07-29T00:13:12;100426.75;;;18.98;63.52
61113;BME280;47184;57.998;56.184;2022-07-29T00:15:38;100432.72;;;18.87;63.91
61113;BME280;47184;57.998;56.184;2022-07-29T00:18:04;100439.31;;;18.84;63.77
61113;BME280;47184;57.998;56.184;2022-07-29T00:20:30;100417.06;;;18.70;63.83
61113;BME280;47184;57.998;56.184;2022-07-29T00:22:57;100402.88;;;18.70;63.81
61113;BME280;47184;57.998;56.184;2022-07-29T00:25:23;100424.06;;;18.85;63.97
61113;BME280;47184;57.998;56.184;2022-07-29T00:27:49;100425.94;;;18.91;64.05
61113;BME280;47184;57.998;56.184;2022-07-29T00:30:15;100430.88;;;18.87;63.64
61113;BME280;47184;57.998;56.184;2022-07-29T00:32:41;100384.50;;;18.60;63.72
61113;BME280;47184;57.998;56.184;2022-07-29T00:35:08;100429.63;;;18.83;63.80
61113;BME280;47184;57.998;56.184;2022-07-29T00:37:53;100422.44;;;18.84;63.77
61113;BME280;47184;57.998;56.184;2022-07-29T00:40:19;100434.56;;;18.93;63.94
61113;BME280;47184;57.998;56.184;2022-07-29T00:42:50;100426.34;;;18.88;63.89
61113;BME280;47184;57.998;56.184;2022-07-29T00:45:17;100424.06;;;18.78;63.93
61113;BME280;47184;57.998;56.184;2022-07-29T00:47:44;100410.47;;;18.73;64.21
61113;BME280;47184;57.998;56.184;2022-07-29T00:50:11;100422.22;;;18.85;64.17
61113;BME280;47184;57.998;56.184;2022-07-29T00:52:39;100421.19;;;18.93;63.99
61113;BME280;47184;57.998;56.184;2022-07-29T00:55:08;100382.28;;;18.77;64.29
61113;BME280;47184;57.998;56.184;2022-07-29T00:57:35;100419.97;;;18.95;64.24
61113;BME280;47184;57.998;56.184;2022-07-29T01:00:04;100402.66;;;18.85;64.50
61113;BME280;47184;57.998;56.184;2022-07-29T01:02:30;100383.72;;;18.79;64.31
61113;BME280;47184;57.998;56.184;2022-07-29T01:04:57;100407.81;;;18.86;64.21
61113;BME280;47184;57.998;56.184;2022-07-29T01:07:24;100428.19;;;19.14;63.95
61113;BME280;47184;57.998;56.184;2022-07-29T01:09:52;100427.78;;;19.17;64.10
61113;BME280;47184;57.998;56.184;2022-07-29T01:12:23;100420.16;;;19.14;63.95
61113;BME280;47184;57.998;56.184;2022-07-29T01:14:51;100428.00;;;19.28;63.96
61113;BME280;47184;57.998;56.184;2022-07-29T01:17:22;100432.09;;;19.38;63.87
61113;BME280;47184;57.998;56.184;2022-07-29T01:19:56;100444.66;;;19.44;63.60
61113;BME280;47184;57.998;56.184;2022-07-29T01:25:31;100387.84;;;19.15;63.41
61113;BME280;47184;57.998;56.184;2022-07-29T01:30:54;100410.47;;;19.26;63.58
61113;BME280;47184;57.998;56.184;2022-07-29T01:33:21;100442.22;;;19.36;63.71
61113;BME280;47184;57.998;56.184;2022-07-29T01:36:14;100450.66;;;19.33;64.17
61113;BME280;47184;57.998;56.184;2022-07-29T01:38:46;100443.66;;;19.25;64.27
61113;BME280;47184;57.998;56.184;2022-07-29T01:41:19;100444.03;;;19.22;64.60
61113;BME280;47184;57.998;56.184;2022-07-29T01:43:53;100445.09;;;19.21;64.70
61113;BME280;47184;57.998;56.184;2022-07-29T01:46:28;100434.16;;;19.22;64.56
61113;BME280;47184;57.998;56.184;2022-07-29T01:49:02;100407.41;;;19.02;64.53
61113;BME280;47184;57.998;56.184;2022-07-29T01:51:55;100437.47;;;19.24;64.79
61113;BME280;47184;57.998;56.184;2022-07-29T01:54:34;100438.69;;;19.28;64.71
61113;BME280;47184;57.998;56.184;2022-07-29T01:57:03;100425.75;;;19.19;64.70
61113;BME280;47184;57.998;56.184;2022-07-29T01:59:31;100437.66;;;19.29;64.58
61113;BME280;47184;57.998;56.184;2022-07-29T02:02:00;100427.34;;;19.26;64.49
61113;BME280;47184;57.998;56.184;2022-07-29T02:04:28;100449.41;;;19.42;64.39
61113;BME280;47184;57.998;56.184;2022-07-29T02:06:58;100411.94;;;19.35;64.38
61113;BME280;47184;57.998;56.184;2022-07-29T02:09:27;100430.44;;;19.57;64.24
61113;BME280;47184;57.998;56.184;2022-07-29T02:11:55;100438.47;;;19.76;63.87
61113;BME280;47184;57.998;56.184;2022-07-29T02:14:23;100385.09;;;19.55;63.60
61113;BME280;47184;57.998;56.184;2022-07-29T02:16:52;100436.97;;;19.94;63.42
61113;BME280;47184;57.998;56.184;2022-07-29T02:19:23;100427.47;;;19.98;63.42
61113;BME280;47184;57.998;56.184;2022-07-29T02:21:53;100422.50;;;20.01;63.36
61113;BME280;47184;57.998;56.184;2022-07-29T02:24:21;100366.31;;;19.75;63.15
61113;BME280;47184;57.998;56.184;2022-07-29T02:26:49;100418.28;;;20.19;63.06
61113;BME280;47184;57.998;56.184;2022-07-29T02:29:16;100393.41;;;20.05;62.85
61113;BME280;47184;57.998;56.184;2022-07-29T02:31:45;100358.59;;;19.92;62.65
61113;BME280;47184;57.998;56.184;2022-07-29T02:34:12;100367.25;;;20.00;62.47
61113;BME280;47184;57.998;56.184;2022-07-29T02:36:41;100421.69;;;20.46;61.93
61113;BME280;47184;57.998;56.184;2022-07-29T02:39:08;100437.72;;;20.59;61.75
61113;BME280;47184;57.998;56.184;2022-07-29T02:41:46;100394.63;;;20.47;61.31
61113;BME280;47184;57.998;56.184;2022-07-29T02:44:15;100383.50;;;20.50;61.00
61113;BME280;47184;57.998;56.184;2022-07-29T02:47:24;100441.00;;;20.93;60.98
61113;BME280;47184;57.998;56.184;2022-07-29T02:49:57;100436.63;;;20.98;60.53
61113;BME280;47184;57.998;56.184;2022-07-29T02:52:35;100436.94;;;21.09;60.23
61113;BME280;47184;57.998;56.184;2022-07-29T02:55:16;100432.13;;;21.17;59.93
61113;BME280;47184;57.998;56.184;2022-07-29T02:57:51;100438.84;;;21.26;59.75
61113;BME280;47184;57.998;56.184;2022-07-29T03:00:23;100341.25;;;20.71;59.47
61113;BME280;47184;57.998;56.184;2022-07-29T03:02:56;100428.31;;;21.32;59.15
61113;BME280;47184;57.998;56.184;2022-07-29T03:05:24;100375.16;;;20.90;59.13
61113;BME280;47184;57.998;56.184;2022-07-29T03:07:55;100441.88;;;21.43;59.02
61113;BME280;47184;57.998;56.184;2022-07-29T03:10:25;100440.16;;;21.49;58.91
61113;BME280;47184;57.998;56.184;2022-07-29T03:12:55;100431.56;;;21.40;58.88
61113;BME280;47184;57.998;56.184;2022-07-29T03:15:22;100428.47;;;21.37;59.03
61113;BME280;47184;57.998;56.184;2022-07-29T03:17:49;100431.13;;;21.43;58.83
61113;BME280;47184;57.998;56.184;2022-07-29T03:20:16;100432.22;;;21.54;58.33
61113;BME280;47184;57.998;56.184;2022-07-29T03:22:44;100426.56;;;21.62;58.16
61113;BME280;47184;57.998;56.184;2022-07-29T03:25:14;100434.47;;;21.75;57.77
61113;BME280;47184;57.998;56.184;2022-07-29T03:27:41;100396.25;;;21.55;57.44
61113;BME280;47184;57.998;56.184;2022-07-29T03:30:08;100429.47;;;21.79;57.15
61113;BME280;47184;57.998;56.184;2022-07-29T03:32:35;100426.34;;;21.82;56.91
61113;BME280;47184;57.998;56.184;2022-07-29T03:35:01;100428.88;;;21.95;56.33
61113;BME280;47184;57.998;56.184;2022-07-29T03:37:29;100435.16;;;22.08;56.11
61113;BME280;47184;57.998;56.184;2022-07-29T03:39:57;100415.31;;;22.09;56.24
61113;BME280;47184;57.998;56.184;2022-07-29T03:42:30;100403.25;;;22.11;55.79
61113;BME280;47184;57.998;56.184;2022-07-29T03:45:01;100430.38;;;22.28;55.37
61113;BME280;47184;57.998;56.184;2022-07-29T03:47:29;100362.72;;;21.94;55.31
61113;BME280;47184;57.998;56.184;2022-07-29T03:50:01;100427.22;;;22.49;54.84
61113;BME280;47184;57.998;56.184;2022-07-29T03:52:29;100404.13;;;22.42;54.93
61113;BME280;47184;57.998;56.184;2022-07-29T03:54:55;100378.06;;;22.24;54.60
61113;BME280;47184;57.998;56.184;2022-07-29T03:57:25;100430.97;;;22.60;54.64
61113;BME280;47184;57.998;56.184;2022-07-29T03:59:53;100418.81;;;22.69;54.23
61113;BME280;47184;57.998;56.184;2022-07-29T04:02:20;100368.91;;;22.43;53.93
61113;BME280;47184;57.998;56.184;2022-07-29T04:04:46;100390.50;;;22.67;53.44
61113;BME280;47184;57.998;56.184;2022-07-29T04:07:13;100409.84;;;22.87;53.20
61113;BME280;47184;57.998;56.184;2022-07-29T04:09:39;100384.78;;;22.75;53.00
61113;BME280;47184;57.998;56.184;2022-07-29T04:12:06;100412.25;;;23.07;52.25
61113;BME280;47184;57.998;56.184;2022-07-29T04:14:33;100408.63;;;23.25;51.98
61113;BME280;47184;57.998;56.184;2022-07-29T04:17:01;100417.44;;;23.44;51.56
61113;BME280;47184;57.998;56.184;2022-07-29T04:19:27;100410.72;;;23.58;51.35
61113;BME280;47184;57.998;56.184;2022-07-29T04:21:53;100390.13;;;23.52;50.80
61113;BME280;47184;57.998;56.184;2022-07-29T04:24:19;100414.13;;;23.77;50.67
61113;BME280;47184;57.998;56.184;2022-07-29T04:26:46;100362.56;;;23.38;50.19
61113;BME280;47184;57.998;56.184;2022-07-29T04:29:12;100414.84;;;23.72;49.30
61113;BME280;47184;57.998;56.184;2022-07-29T04:31:40;100349.47;;;23.30;49.58
61113;BME280;47184;57.998;56.184;2022-07-29T04:34:07;100411.34;;;23.72;49.07
61113;BME280;47184;57.998;56.184;2022-07-29T04:36:33;100414.84;;;23.72;49.10
61113;BME280;47184;57.998;56.184;2022-07-29T04:38:59;100413.31;;;23.77;49.05
61113;BME280;47184;57.998;56.184;2022-07-29T04:41:27;100420.22;;;23.84;48.58
61113;BME280;47184;57.998;56.184;2022-07-29T04:43:54;100413.97;;;23.84;48.36
61113;BME280;47184;57.998;56.184;2022-07-29T04:46:20;100419.97;;;23.86;48.62
61113;BME280;47184;57.998;56.184;2022-07-29T04:48:46;100428.25;;;23.96;48.57
61113;BME280;47184;57.998;56.184;2022-07-29T04:51:16;100422.28;;;24.06;48.31
61113;BME280;47184;57.998;56.184;2022-07-29T04:53:42;100430.81;;;24.14;48.36
61113;BME280;47184;57.998;56.184;2022-07-29T04:56:08;100400.06;;;24.15;48.22
61113;BME280;47184;57.998;56.184;2022-07-29T04:58:35;100429.31;;;24.47;47.77
61113;BME280;47184;57.998;56.184;2022-07-29T05:01:02;100421.28;;;24.52;47.75
61113;BME280;47184;57.998;56.184;2022-07-29T05:03:28;100425.47;;;24.60;47.43
61113;BME280;47184;57.998;56.184;2022-07-29T05:05:55;100423.28;;;24.74;47.48
61113;BME280;47184;57.998;56.184;2022-07-29T05:08:21;100402.41;;;24.86;46.98
61113;BME280;47184;57.998;56.184;2022-07-29T05:10:47;100412.88;;;25.11;46.64
61113;BME280;47184;57.998;56.184;2022-07-29T05:13:13;100410.56;;;25.19;46.05
61113;BME280;47184;57.998;56.184;2022-07-29T05:15:39;100405.72;;;25.22;45.83
61113;BME280;47184;57.998;56.184;2022-07-29T05:18:06;100419.22;;;25.38;45.17
61113;BME280;47184;57.998;56.184;2022-07-29T05:20:32;100365.66;;;25.18;44.81
61113;BME280;47184;57.998;56.184;2022-07-29T05:23:00;100415.22;;;25.63;44.67
61113;BME280;47184;57.998;56.184;2022-07-29T05:25:28;100423.59;;;25.78;44.44
61113;BME280;47184;57.998;56.184;2022-07-29T05:27:54;100413.41;;;25.85;43.71
61113;BME280;47184;57.998;56.184;2022-07-29T05:30:21;100422.75;;;26.00;43.55
61113;BME280;47184;57.998;56.184;2022-07-29T05:32:47;100403.13;;;26.09;43.05
61113;BME280;47184;57.998;56.184;2022-07-29T05:35:14;100413.97;;;26.36;42.45
61113;BME280;47184;57.998;56.184;2022-07-29T05:37:41;100409.81;;;26.51;42.30
61113;BME280;47184;57.998;56.184;2022-07-29T05:40:09;100408.94;;;26.72;41.78
61113;BME280;47184;57.998;56.184;2022-07-29T05:42:36;100406.75;;;27.06;40.55
61113;BME280;47184;57.998;56.184;2022-07-29T05:45:02;100404.75;;;27.24;40.43
61113;BME280;47184;57.998;56.184;2022-07-29T05:47:30;100401.97;;;27.13;39.95
61113;BME280;47184;57.998;56.184;2022-07-29T05:49:59;100407.78;;;27.32;39.53
61113;BME280;47184;57.998;56.184;2022-07-29T05:52:25;100395.16;;;27.53;39.58
61113;BME280;47184;57.998;56.184;2022-07-29T05:54:52;100393.63;;;27.73;38.58
61113;BME280;47184;57.998;56.184;2022-07-29T05:57:22;100396.47;;;27.98;37.99
61113;BME280;47184;57.998;56.184;2022-07-29T05:59:49;100383.25;;;28.32;37.39
61113;BME280;47184;57.998;56.184;2022-07-29T06:02:16;100397.16;;;28.82;36.80
61113;BME280;47184;57.998;56.184;2022-07-29T06:04:42;100323.53;;;28.58;35.94
61113;BME280;47184;57.998;56.184;2022-07-29T06:07:08;100356.06;;;29.29;35.51
61113;BME280;47184;57.998;56.184;2022-07-29T06:09:35;100395.69;;;30.31;34.39
61113;BME280;47184;57.998;56.184;2022-07-29T06:12:01;100364.09;;;30.98;32.84
61113;BME280;47184;57.998;56.184;2022-07-29T06:14:27;100379.25;;;31.39;32.06
61113;BME280;47184;57.998;56.184;2022-07-29T06:16:54;100386.63;;;31.86;31.32
61113;BME280;47184;57.998;56.184;2022-07-29T06:19:20;100328.78;;;31.60;31.29
61113;BME280;47184;57.998;56.184;2022-07-29T06:21:46;100383.56;;;31.69;30.89
61113;BME280;47184;57.998;56.184;2022-07-29T06:24:15;100336.72;;;31.08;30.97
61113;BME280;47184;57.998;56.184;2022-07-29T06:26:41;100325.66;;;31.24;30.62
61113;BME280;47184;57.998;56.184;2022-07-29T06:29:08;100387.94;;;32.50;29.43
61113;BME280;47184;57.998;56.184;2022-07-29T06:31:36;100323.22;;;32.27;28.92
61113;BME280;47184;57.998;56.184;2022-07-29T06:34:03;100318.19;;;32.15;28.65
61113;BME280;47184;57.998;56.184;2022-07-29T06:36:30;100370.84;;;32.91;27.86
61113;BME280;47184;57.998;56.184;2022-07-29T06:38:56;100382.59;;;33.66;26.85
61113;BME280;47184;57.998;56.184;2022-07-29T06:41:22;100380.50;;;34.49;25.84
61113;BME280;47184;57.998;56.184;2022-07-29T06:43:49;100368.31;;;34.86;25.85
61113;BME280;47184;57.998;56.184;2022-07-29T06:46:18;100389.91;;;35.02;24.55
61113;BME280;47184;57.998;56.184;2022-07-29T06:48:45;100389.72;;;34.98;24.14
61113;BME280;47184;57.998;56.184;2022-07-29T06:51:11;100400.72;;;35.38;23.74
61113;BME280;47184;57.998;56.184;2022-07-29T06:53:38;100390.38;;;35.75;23.63
61113;BME280;47184;57.998;56.184;2022-07-29T06:56:06;100386.91;;;36.26;23.49
61113;BME280;47184;57.998;56.184;2022-07-29T06:58:34;100322.50;;;36.36;22.96
61113;BME280;47184;57.998;56.184;2022-07-29T07:01:03;100380.50;;;37.72;21.77
61113;BME280;47184;57.998;56.184;2022-07-29T07:03:29;100394.94;;;38.61;20.80
61113;BME280;47184;57.998;56.184;2022-07-29T07:05:55;100393.97;;;39.35;20.13
61113;BME280;47184;57.998;56.184;2022-07-29T07:08:22;100393.88;;;39.81;19.53
61113;BME280;47184;57.998;56.184;2022-07-29T07:10:50;100389.22;;;39.97;19.11
61113;BME280;47184;57.998;56.184;2022-07-29T07:13:16;100394.16;;;40.04;19.07
61113;BME280;47184;57.998;56.184;2022-07-29T07:15:44;100389.78;;;40.15;18.87
61113;BME280;47184;57.998;56.184;2022-07-29T07:18:11;100351.28;;;40.10;18.98
61113;BME280;47184;57.998;56.184;2022-07-29T07:20:37;100369.59;;;40.87;18.62
61113;BME280;47184;57.998;56.184;2022-07-29T07:23:03;100390.84;;;41.42;18.00
61113;BME280;47184;57.998;56.184;2022-07-29T07:25:30;100387.22;;;41.93;17.55
61113;BME280;47184;57.998;56.184;2022-07-29T07:27:56;100366.00;;;42.00;17.29
61113;BME280;47184;57.998;56.184;2022-07-29T07:30:23;100328.19;;;41.76;17.14
61113;BME280;47184;57.998;56.184;2022-07-29T07:32:52;100376.44;;;42.46;16.96
61113;BME280;47184;57.998;56.184;2022-07-29T07:35:18;100373.81;;;42.72;16.65
61113;BME280;47184;57.998;56.184;2022-07-29T07:37:45;100370.88;;;42.65;16.26
61113;BME280;47184;57.998;56.184;2022-07-29T07:40:11;100373.72;;;42.26;16.28
61113;BME280;47184;57.998;56.184;2022-07-29T07:42:39;100349.72;;;41.99;15.73
61113;BME280;47184;57.998;56.184;2022-07-29T07:45:06;100377.84;;;41.97;15.67
61113;BME280;47184;57.998;56.184;2022-07-29T07:47:36;100370.84;;;42.42;15.26
61113;BME280;47184;57.998;56.184;2022-07-29T07:50:07;100368.88;;;42.85;14.79
61113;BME280;47184;57.998;56.184;2022-07-29T07:52:34;100371.56;;;42.82;14.82
61113;BME280;47184;57.998;56.184;2022-07-29T07:55:00;100374.47;;;43.35;14.56
61113;BME280;47184;57.998;56.184;2022-07-29T07:57:29;100356.50;;;43.82;14.38
61113;BME280;47184;57.998;56.184;2022-07-29T07:59:55;100344.75;;;43.95;14.01
61113;BME280;47184;57.998;56.184;2022-07-29T08:02:21;100363.34;;;44.55;13.56
61113;BME280;47184;57.998;56.184;2022-07-29T08:04:47;100368.50;;;44.94;13.26
61113;BME280;47184;57.998;56.184;2022-07-29T08:07:13;100366.88;;;45.37;12.89
61113;BME280;47184;57.998;56.184;2022-07-29T08:09:40;100372.31;;;45.16;12.82
61113;BME280;47184;57.998;56.184;2022-07-29T08:12:07;100361.91;;;43.71;13.63
61113;BME280;47184;57.998;56.184;2022-07-29T08:14:33;100361.13;;;42.33;14.64
61113;BME280;47184;57.998;56.184;2022-07-29T08:16:59;100344.47;;;42.33;15.07
61113;BME280;47184;57.998;56.184;2022-07-29T08:19:25;100324.56;;;42.50;15.11
61113;BME280;47184;57.998;56.184;2022-07-29T08:21:51;100360.41;;;43.24;14.60
61113;BME280;47184;57.998;56.184;2022-07-29T08:24:19;100352.28;;;43.38;14.44
61113;BME280;47184;57.998;56.184;2022-07-29T08:27:04;100360.66;;;43.42;14.47
61113;BME280;47184;57.998;56.184;2022-07-29T08:29:30;100355.31;;;43.53;14.04
61113;BME280;47184;57.998;56.184;2022-07-29T08:31:56;100308.53;;;43.62;14.07
61113;BME280;47184;57.998;56.184;2022-07-29T08:34:22;100357.75;;;44.18;14.17
61113;BME280;47184;57.998;56.184;2022-07-29T08:36:48;100366.06;;;44.48;13.48
61113;BME280;47184;57.998;56.184;2022-07-29T08:39:14;100338.31;;;44.59;13.04
61113;BME280;47184;57.998;56.184;2022-07-29T08:41:40;100346.66;;;45.03;12.88
61113;BME280;47184;57.998;56.184;2022-07-29T08:44:06;100348.16;;;44.49;13.53
61113;BME280;47184;57.998;56.184;2022-07-29T08:46:33;100357.56;;;44.04;13.87
61113;BME280;47184;57.998;56.184;2022-07-29T08:48:59;100357.06;;;43.94;13.51
61113;BME280;47184;57.998;56.184;2022-07-29T08:51:26;100347.63;;;44.36;13.71
61113;BME280;47184;57.998;56.184;2022-07-29T08:53:54;100340.56;;;44.83;12.88
61113;BME280;47184;57.998;56.184;2022-07-29T08:56:21;100350.06;;;45.27;13.32
61113;BME280;47184;57.998;56.184;2022-07-29T08:58:48;100342.75;;;45.66;12.45
61113;BME280;47184;57.998;56.184;2022-07-29T09:01:17;100349.69;;;46.05;12.50
61113;BME280;47184;57.998;56.184;2022-07-29T09:03:47;100349.09;;;46.68;12.09
61113;BME280;47184;57.998;56.184;2022-07-29T09:06:14;100345.50;;;46.86;12.07
61113;BME280;47184;57.998;56.184;2022-07-29T09:08:42;100346.69;;;47.35;11.57
61113;BME280;47184;57.998;56.184;2022-07-29T09:11:09;100342.66;;;47.54;11.30
61113;BME280;47184;57.998;56.184;2022-07-29T09:13:37;100345.81;;;47.74;11.26
61113;BME280;47184;57.998;56.184;2022-07-29T09:16:06;100302.25;;;47.69;11.11
61113;BME280;47184;57.998;56.184;2022-07-29T09:21:04;100334.88;;;48.04;11.00
61113;BME280;47184;57.998;56.184;2022-07-29T09:24:04;100319.25;;;48.10;11.30
61113;BME280;47184;57.998;56.184;2022-07-29T09:26:40;100299.53;;;48.28;10.76
61113;BME280;47184;57.998;56.184;2022-07-29T09:29:13;100319.81;;;47.73;10.94
61113;BME280;47184;57.998;56.184;2022-07-29T09:31:48;100313.56;;;47.01;11.13
61113;BME280;47184;57.998;56.184;2022-07-29T09:34:22;100323.09;;;46.50;11.74
61113;BME280;47184;57.998;56.184;2022-07-29T09:36:50;100318.44;;;45.67;11.99
61113;BME280;47184;57.998;56.184;2022-07-29T09:39:31;100309.69;;;45.06;12.32
61113;BME280;47184;57.998;56.184;2022-07-29T09:42:00;100319.81;;;45.36;12.04
61113;BME280;47184;57.998;56.184;2022-07-29T09:44:26;100308.53;;;45.14;12.23
61113;BME280;47184;57.998;56.184;2022-07-29T09:47:00;100293.03;;;45.17;12.23
61113;BME280;47184;57.998;56.184;2022-07-29T09:49:35;100266.94;;;44.88;12.13
61113;BME280;47184;57.998;56.184;2022-07-29T09:52:07;100317.63;;;45.66;11.79
61113;BME280;47184;57.998;56.184;2022-07-29T09:54:37;100294.22;;;45.92;11.61
61113;BME280;47184;57.998;56.184;2022-07-29T09:57:08;100317.50;;;46.50;11.30
61113;BME280;47184;57.998;56.184;2022-07-29T09:59:38;100308.78;;;47.05;10.85
61113;BME280;47184;57.998;56.184;2022-07-29T10:02:14;100306.59;;;47.77;10.79
61113;BME280;47184;57.998;56.184;2022-07-29T10:04:41;100306.50;;;47.95;10.33
61113;BME280;47184;57.998;56.184;2022-07-29T10:07:08;100329.28;;;48.04;10.37
61113;BME280;47184;57.998;56.184;2022-07-29T10:09:35;100324.22;;;47.74;10.49
61113;BME280;47184;57.998;56.184;2022-07-29T10:12:10;100321.41;;;47.63;10.45
61113;BME280;47184;57.998;56.184;2022-07-29T10:14:37;100313.00;;;47.74;10.43
61113;BME280;47184;57.998;56.184;2022-07-29T10:17:05;100280.22;;;47.71;10.03
61113;BME280;47184;57.998;56.184;2022-07-29T10:19:33;100320.66;;;48.40;10.00
61113;BME280;47184;57.998;56.184;2022-07-29T10:22:02;100319.41;;;48.48;10.53
61113;BME280;47184;57.998;56.184;2022-07-29T10:24:29;100313.28;;;48.64;9.99
61113;BME280;47184;57.998;56.184;2022-07-29T10:26:58;100314.53;;;48.59;9.73
61113;BME280;47184;57.998;56.184;2022-07-29T10:29:25;100305.28;;;48.07;10.00
61113;BME280;47184;57.998;56.184;2022-07-29T10:43:23;100273.16;;;48.22;10.38
61113;BME280;47184;57.998;56.184;2022-07-29T10:45:56;100288.75;;;48.79;10.08
61113;BME280;47184;57.998;56.184;2022-07-29T10:48:23;100292.00;;;48.70;9.89
61113;BME280;47184;57.998;56.184;2022-07-29T10:50:53;100296.56;;;48.53;9.77
61113;BME280;47184;57.998;56.184;2022-07-29T10:53:22;100276.59;;;48.48;10.23
61113;BME280;47184;57.998;56.184;2022-07-29T10:55:52;100292.69;;;48.29;10.24
61113;BME280;47184;57.998;56.184;2022-07-29T10:58:22;100269.53;;;48.25;10.02
61113;BME280;47184;57.998;56.184;2022-07-29T11:00:53;100270.72;;;48.28;9.79
61113;BME280;47184;57.998;56.184;2022-07-29T11:03:48;100279.16;;;48.73;9.49
61113;BME280;47184;57.998;56.184;2022-07-29T11:06:17;100279.25;;;48.62;9.42
61113;BME280;47184;57.998;56.184;2022-07-29T11:08:43;100284.34;;;48.78;9.88
61113;BME280;47184;57.998;56.184;2022-07-29T11:11:31;100279.75;;;48.98;9.90
61113;BME280;47184;57.998;56.184;2022-07-29T11:13:57;100273.59;;;49.10;9.85
61113;BME280;47184;57.998;56.184;2022-07-29T11:16:23;100276.25;;;49.28;9.75
61113;BME280;47184;57.998;56.184;2022-07-29T11:21:42;100265.34;;;48.51;10.23
61113;BME280;47184;57.998;56.184;2022-07-29T11:24:35;100275.25;;;48.00;10.56
61113;BME280;47184;57.998;56.184;2022-07-29T11:27:19;100270.78;;;47.36;10.72
61113;BME280;47184;57.998;56.184;2022-07-29T11:29:57;100274.00;;;47.17;10.75
61113;BME280;47184;57.998;56.184;2022-07-29T11:32:24;100266.41;;;47.14;10.92
61113;BME280;47184;57.998;56.184;2022-07-29T11:37:44;100271.66;;;48.03;10.62
61113;BME280;47184;57.998;56.184;2022-07-29T11:40:12;100273.81;;;47.78;10.25
61113;BME280;47184;57.998;56.184;2022-07-29T11:42:40;100263.03;;;47.65;10.49
61113;BME280;47184;57.998;56.184;2022-07-29T11:47:41;100253.47;;;48.29;10.37
61113;BME280;47184;57.998;56.184;2022-07-29T11:50:15;100261.34;;;48.52;10.10
61113;BME280;47184;57.998;56.184;2022-07-29T11:52:44;100253.25;;;48.58;9.60
61113;BME280;47184;57.998;56.184;2022-07-29T11:55:15;100218.72;;;48.72;10.09
61113;BME280;47184;57.998;56.184;2022-07-29T11:57:52;100255.78;;;49.28;9.55
61113;BME280;47184;57.998;56.184;2022-07-29T12:00:23;100249.69;;;49.37;9.42
61113;BME280;47184;57.998;56.184;2022-07-29T12:02:50;100249.69;;;49.37;9.18
61113;BME280;47184;57.998;56.184;2022-07-29T12:05:17;100258.50;;;49.35;9.54
61113;BME280;47184;57.998;56.184;2022-07-29T12:07:43;100239.63;;;49.39;9.93
61113;BME280;47184;57.998;56.184;2022-07-29T12:10:09;100242.75;;;49.14;9.43
61113;BME280;47184;57.998;56.184;2022-07-29T12:12:36;100193.25;;;48.55;9.94
61113;BME280;47184;57.998;56.184;2022-07-29T12:15:14;100234.84;;;48.08;10.14
61113;BME280;47184;57.998;56.184;2022-07-29T12:17:41;100200.25;;;47.67;10.20
61113;BME280;47184;57.998;56.184;2022-07-29T12:20:08;100235.06;;;48.32;10.35
61113;BME280;47184;57.998;56.184;2022-07-29T12:22:36;100215.66;;;48.59;9.91
61113;BME280;47184;57.998;56.184;2022-07-29T12:25:09;100233.59;;;48.65;9.89
61113;BME280;47184;57.998;56.184;2022-07-29T12:27:36;100226.84;;;48.10;10.17
61113;BME280;47184;57.998;56.184;2022-07-29T12:30:06;100234.97;;;47.83;10.53
61113;BME280;47184;57.998;56.184;2022-07-29T12:32:41;100233.75;;;47.88;10.65
61113;BME280;47184;57.998;56.184;2022-07-29T12:35:18;100216.72;;;47.57;10.60
61113;BME280;47184;57.998;56.184;2022-07-29T12:37:46;100224.06;;;46.90;10.99
61113;BME280;47184;57.998;56.184;2022-07-29T12:40:15;100213.72;;;46.84;11.15
61113;BME280;47184;57.998;56.184;2022-07-29T12:45:38;100212.56;;;46.60;11.24
61113;BME280;47184;57.998;56.184;2022-07-29T12:48:06;100201.78;;;46.26;11.93
61113;BME280;47184;57.998;56.184;2022-07-29T12:50:36;100214.16;;;46.43;11.52
61113;BME280;47184;57.998;56.184;2022-07-29T12:53:12;100204.97;;;46.42;11.26
61113;BME280;47184;57.998;56.184;2022-07-29T12:55:41;100202.13;;;46.00;11.49
61113;BME280;47184;57.998;56.184;2022-07-29T12:58:08;100177.31;;;45.66;11.63
61113;BME280;47184;57.998;56.184;2022-07-29T13:00:34;100154.19;;;45.58;11.82
61113;BME280;47184;57.998;56.184;2022-07-29T13:03:00;100193.28;;;45.76;11.32
61113;BME280;47184;57.998;56.184;2022-07-29T13:05:44;100196.56;;;46.03;11.56
61113;BME280;47184;57.998;56.184;2022-07-29T13:08:12;100188.50;;;45.69;11.73
61113;BME280;47184;57.998;56.184;2022-07-29T13:10:38;100187.63;;;45.51;11.93
61113;BME280;47184;57.998;56.184;2022-07-29T13:13:11;100194.47;;;45.75;12.15
61113;BME280;47184;57.998;56.184;2022-07-29T13:15:40;100173.81;;;46.08;11.93
61113;BME280;47184;57.998;56.184;2022-07-29T13:18:29;100183.38;;;46.00;11.55
61113;BME280;47184;57.998;56.184;2022-07-29T13:20:56;100181.00;;;46.02;12.02